GMT,Max TemperatureF,Mean TemperatureF,Min TemperatureF,Max Dew PointF,MeanDew PointF,Min DewpointF,Max Humidity, Mean Humidity, Min Humidity, Max Sea Level PressureIn, Mean Sea Level PressureIn, Min Sea Level PressureIn, Max VisibilityMiles, Mean VisibilityMiles, Min VisibilityMiles, Max Wind SpeedMPH, Mean Wind SpeedMPH, Max Gust SpeedMPH,PrecipitationIn, CloudCover, Events, WindDirDegrees
2012-12-1,39,34,28,36,29,25,100,82,61,29.98,29.95,29.86,6,6,1,10,5,,0.00,2,,268
2012-12-2,39,32,24,30,27,23,100,88,70,29.98,29.93,29.77,6,6,1,8,4,,0.00,2,Snow,239
2012-12-3,41,36,30,37,34,30,100,94,81,29.77,29.53,29.44,6,5,2,16,7,,0.00,3,Rain-Snow,258
2012-12-4,37,34,30,36,32,27,100,94,81,29.71,29.56,29.47,6,6,4,13,7,,0.00,5,Fog-Rain-Snow,289
2012-12-5,37,30,24,28,24,21,93,82,70,29.98,29.87,29.74,6,6,6,9,6,,0.00,1,,268
2012-12-6,39,31,23,36,32,19,100,86,69,29.95,29.54,29.24,6,6,4,26,10,37,0.00,5,Rain,238
2012-12-7,42,35,28,36,32,27,100,82,70,30.09,29.73,29.36,6,6,6,12,6,,0.00,4,Rain-Snow,288
2012-12-8,48,39,30,45,37,27,93,89,81,30.15,30.08,29.92,6,6,6,23,9,,0.00,5,Rain,248
2012-12-9,46,42,37,43,34,30,87,70,61,30.15,29.96,29.86,6,6,6,18,13,29,0.00,2,Rain,281
2012-12-10,41,32,24,32,29,23,100,81,65,30.48,30.35,30.15,6,6,6,9,5,,0.00,2,,298
2012-12-11,35,28,21,28,24,19,100,91,75,30.48,30.41,30.24,6,6,6,7,3,,0.00,1,,255
2012-12-12,32,28,24,30,27,25,100,95,93,30.24,30.02,29.83,6,5,2,6,3,,0.00,2,,291
2012-12-13,35,30,26,32,28,19,100,90,64,29.83,29.67,29.50,6,4,2,8,1,,0.00,4,Snow,73
2012-12-14,42,37,32,41,34,27,100,88,75,29.44,29.02,28.65,6,5,2,16,11,,0.00,7,Rain,73
2012-12-15,46,42,37,41,40,37,100,89,81,29.21,28.92,28.65,6,6,6,20,13,,0.00,5,Rain-Snow,235
2012-12-16,46,39,32,41,37,32,100,91,81,29.36,29.31,29.21,6,6,6,9,5,,0.00,3,,192
2012-12-17,42,38,35,41,39,34,100,95,87,29.68,29.44,29.33,6,4,2,9,4,,0.00,6,Rain,36
2012-12-18,44,40,35,43,40,36,100,96,87,30.12,30.00,29.74,6,6,4,7,2,,0.00,6,Fog-Rain,30
2012-12-19,44,40,35,37,37,34,93,83,71,30.09,29.97,29.86,6,6,5,16,9,25,0.00,6,Rain,94
2012-12-20,42,42,41,39,38,37,87,84,81,29.86,29.67,29.59,6,6,5,22,14,36,0.00,6,Rain,90
2012-12-21,41,40,39,39,39,37,100,93,87,29.86,29.78,29.62,6,6,6,13,9,,0.00,7,Rain,66
2012-12-22,44,42,39,43,41,37,93,91,81,29.83,29.51,29.21,6,6,4,15,9,,0.00,7,Rain,79
2012-12-23,51,48,44,48,43,39,100,87,76,29.44,29.18,28.91,6,6,4,30,14,44,0.00,5,Rain,244
2012-12-24,46,40,35,43,39,34,100,89,81,29.44,29.30,29.18,6,6,6,18,11,,0.00,5,Rain,227
2012-12-25,42,37,32,39,35,30,100,91,81,29.30,29.18,29.12,6,6,6,14,6,,0.00,3,Rain,241
2012-12-26,41,39,37,39,38,36,100,91,81,29.44,29.35,29.30,6,6,2,20,11,,0.00,5,Rain,122
2012-12-27,39,36,33,36,34,32,93,86,81,29.92,29.67,29.33,6,6,4,21,13,32,0.00,6,Rain,49
2012-12-28,53,46,39,48,43,34,94,84,76,29.89,29.51,29.21,6,6,4,37,16,52,0.00,5,Rain,203
2012-12-29,53,46,39,50,40,32,94,82,70,29.21,29.19,29.15,6,6,4,30,21,40,0.00,3,Rain,226
2012-12-30,50,42,33,46,37,32,93,87,81,29.33,29.29,29.21,6,6,3,28,20,39,0.00,5,Rain,236
2012-12-31,50,42,33,46,41,32,93,83,71,29.30,29.14,28.97,6,6,4,31,23,45,0.00,5,Rain,235